Time;durP1;ratioP1;P1;durP2;ratioP2;P2;SDS_P1;SDS_P2;PMS_P1;PMS_P2;Temp;Humidity;BMP_temperature;BMP_pressure;BME280_temperature;BME280_humidity;BME280_pressure;Samples;Min_cycle;Max_cycle;Signal;HPM_P1;HPM_P2
2022/06/08 00:01:41;;;;;;;5.70;5.30;;;;;;;18.53;77.31;94486.78;5092482;28;20432;-81
2022/06/08 00:04:12;;;;;;;5.13;4.73;;;;;;;18.40;77.55;94484.78;5092466;28;20954;-81
2022/06/08 00:06:39;;;;;;;8.03;4.60;;;;;;;18.35;77.44;94483.72;5092020;28;21014;-81
2022/06/08 00:09:06;;;;;;;4.53;4.23;;;;;;;18.27;77.41;94482.81;5056439;28;20518;-81
2022/06/08 00:11:33;;;;;;;4.60;4.30;;;;;;;18.25;77.33;94486.66;5092223;28;20450;-81
2022/06/08 00:14:00;;;;;;;10.47;5.40;;;;;;;18.20;77.56;94483.72;5091886;28;20476;-81
2022/06/08 00:16:29;;;;;;;5.23;4.73;;;;;;;18.13;77.70;94481.00;5092127;28;20475;-81
2022/06/08 00:18:55;;;;;;;6.00;4.67;;;;;;;18.15;78.00;94483.47;5091894;28;20440;-81
2022/06/08 00:21:22;;;;;;;6.97;3.93;;;;;;;18.13;78.22;94477.53;5091658;28;20529;-81
2022/06/08 00:23:50;;;;;;;4.30;3.90;;;;;;;18.08;78.60;94472.78;5092369;28;20526;-81
2022/06/08 00:26:17;;;;;;;4.57;4.17;;;;;;;18.05;78.49;94467.84;5040257;28;20986;-81
2022/06/08 00:28:44;;;;;;;5.30;4.80;;;;;;;18.02;78.56;94470.03;5056523;28;20971;-81
2022/06/08 00:31:11;;;;;;;9.10;4.13;;;;;;;18.03;79.13;94471.69;5091858;28;20447;-81
2022/06/08 00:33:40;;;;;;;4.63;4.33;;;;;;;18.01;79.06;94476.38;5091773;28;20444;-81
2022/06/08 00:36:07;;;;;;;4.57;4.23;;;;;;;17.99;79.52;94473.06;5091740;28;20877;-81
2022/06/08 00:38:35;;;;;;;8.93;4.37;;;;;;;18.00;79.41;94480.03;5091787;28;20483;-81
2022/06/08 00:41:15;;;;;;;7.00;5.53;;;;;;;17.96;79.68;94474.28;5092384;28;20444;-81
2022/06/08 00:43:42;;;;;;;5.10;4.67;;;;;;;17.70;80.11;94474.75;5092216;28;20526;-81
2022/06/08 00:46:10;;;;;;;5.43;4.33;;;;;;;17.76;80.15;94466.03;5091653;28;20454;-81
2022/06/08 00:48:42;;;;;;;7.20;4.70;;;;;;;17.81;80.60;94476.94;5092120;28;20470;-81
2022/06/08 00:51:09;;;;;;;5.93;4.83;;;;;;;17.91;80.48;94472.16;5091972;28;20440;-80
2022/06/08 00:53:42;;;;;;;4.70;4.20;;;;;;;17.91;79.62;94469.50;5092040;28;20454;-81
2022/06/08 00:56:21;;;;;;;6.63;4.30;;;;;;;17.91;79.43;94461.53;5045026;28;20437;-81
2022/06/08 00:58:48;;;;;;;4.70;4.30;;;;;;;17.92;80.16;94467.66;5096560;28;20510;-81
2022/06/08 01:01:15;;;;;;;8.40;4.87;;;;;;;17.99;80.54;94467.75;5096895;28;20463;-81
2022/06/08 01:03:44;;;;;;;4.17;3.87;;;;;;;18.00;80.28;94466.75;5096513;28;20451;-81
2022/06/08 01:06:17;;;;;;;4.90;4.60;;;;;;;18.02;79.36;94468.22;5097239;28;20451;-81
2022/06/08 01:08:46;;;;;;;10.13;4.43;;;;;;;18.02;79.13;94465.56;5096783;28;20458;-81
2022/06/08 01:11:19;;;;;;;4.77;4.30;;;;;;;18.01;78.78;94468.41;5096630;28;20448;-81
2022/06/08 01:13:49;;;;;;;5.83;4.40;;;;;;;18.00;78.74;94464.09;5046143;28;20466;-81
2022/06/08 01:16:16;;;;;;;4.70;4.30;;;;;;;17.97;78.22;94451.19;5045421;28;20440;-81
2022/06/08 01:18:44;;;;;;;5.70;4.30;;;;;;;17.96;77.93;94453.03;5095577;28;20486;-81
2022/06/08 01:21:50;;;;;;;4.90;4.50;;;;;;;17.95;77.75;94454.03;5095189;28;20801;-81
2022/06/08 01:24:17;;;;;;;4.53;4.23;;;;;;;17.87;77.76;94454.94;4993078;28;20456;-81
2022/06/08 01:26:51;;;;;;;4.77;4.33;;;;;;;17.78;77.93;94444.63;4993050;28;20449;-81
2022/06/08 01:29:23;;;;;;;5.23;4.90;;;;;;;17.72;78.01;94451.50;4993091;28;20454;-81
2022/06/08 01:32:02;;;;;;;5.83;4.27;;;;;;;17.62;78.51;94448.25;4993139;28;20888;-81
2022/06/08 01:34:40;;;;;;;4.50;4.10;;;;;;;17.51;78.56;94448.72;4993172;28;20452;-81
2022/06/08 01:37:21;;;;;;;5.63;4.37;;;;;;;17.53;78.48;94458.13;4992763;28;20463;-81
2022/06/08 01:40:03;;;;;;;4.93;4.53;;;;;;;17.52;79.17;94447.72;4992766;28;20459;-81
2022/06/08 01:42:42;;;;;;;5.50;4.50;;;;;;;17.51;78.56;94448.72;4992881;28;21006;-81
2022/06/08 01:45:33;;;;;;;5.27;4.77;;;;;;;17.55;78.67;94444.69;4993093;28;20471;-81
2022/06/08 01:48:34;;;;;;;4.20;3.90;;;;;;;17.59;78.96;94445.97;4992621;28;20550;-81
2022/06/08 01:51:16;;;;;;;5.23;4.70;;;;;;;17.56;78.86;94446.34;4954137;29;20457;-81
2022/06/08 01:53:52;;;;;;;4.83;4.33;;;;;;;17.46;79.31;94451.94;4953853;29;20483;-81
2022/06/08 01:56:27;;;;;;;4.53;4.27;;;;;;;17.40;79.50;94446.53;4953859;29;20454;-81
2022/06/08 01:59:09;;;;;;;7.00;4.47;;;;;;;17.35;79.49;94444.44;4961166;28;20488;-81
2022/06/08 02:01:43;;;;;;;5.50;5.00;;;;;;;17.35;79.37;94444.44;5031985;28;20461;-81
2022/06/08 02:04:20;;;;;;;5.43;4.93;;;;;;;17.27;79.80;94447.97;5031809;28;20444;-81
2022/06/08 02:06:57;;;;;;;4.97;4.57;;;;;;;17.23;79.77;94449.34;5031652;28;20446;-81
2022/06/08 02:09:34;;;;;;;5.07;4.67;;;;;;;17.24;79.80;94448.34;5031830;28;20533;-81
2022/06/08 02:12:19;;;;;;;;;;;;;;;;;;;;;
2022/06/08 02:14:51;;;;;;;6.93;4.10;;;;;;;17.22;80.23;94444.22;5031358;28;20443;-81
2022/06/08 02:17:24;;;;;;;5.10;4.50;;;;;;;17.21;80.02;94443.41;5031610;28;20439;-81
2022/06/08 02:19:56;;;;;;;11.60;5.17;;;;;;;17.15;80.04;94444.13;5031320;28;20443;-81
2022/06/08 02:22:28;;;;;;;4.67;4.27;;;;;;;17.12;80.41;94435.72;5031120;28;20477;-81
2022/06/08 02:25:02;;;;;;;5.30;4.87;;;;;;;17.13;80.29;94437.38;5031578;28;20434;-80
2022/06/08 02:27:35;;;;;;;5.20;4.70;;;;;;;17.11;79.97;94436.72;5055075;28;20479;-81
2022/06/08 02:30:09;;;;;;;5.10;4.70;;;;;;;17.00;80.36;94436.16;5094203;28;20444;-81
2022/06/08 02:35:28;;;;;;;4.83;4.20;;;;;;;16.95;80.49;94433.22;5093762;28;20436;-81
2022/06/08 02:37:59;;;;;;;5.80;5.30;;;;;;;16.83;81.09;94436.50;5093442;28;20491;-81
2022/06/08 02:40:32;;;;;;;5.33;4.83;;;;;;;16.84;81.13;94436.31;5093638;28;20444;-81
2022/06/08 02:43:03;;;;;;;4.80;4.40;;;;;;;16.77;81.20;94440.69;5093525;28;20443;-80
2022/06/08 02:45:37;;;;;;;4.20;3.90;;;;;;;16.74;81.38;94433.06;5041241;28;20440;-81
2022/06/08 02:48:05;;;;;;;5.67;4.50;;;;;;;16.78;81.18;94449.47;5093403;28;20530;-80
2022/06/08 02:50:33;;;;;;;5.53;4.20;;;;;;;16.77;81.17;94445.97;5093426;28;20447;-81
2022/06/08 02:53:10;;;;;;;5.40;4.53;;;;;;;16.79;81.42;94445.81;5093310;28;20447;-81
2022/06/08 02:55:51;;;;;;;7.77;4.30;;;;;;;16.84;80.98;94441.59;5093265;28;20440;-81
2022/06/08 02:58:25;;;;;;;4.80;4.37;;;;;;;16.91;80.76;94439.06;5093476;28;20984;-81
2022/06/08 03:01:01;;;;;;;7.10;5.17;;;;;;;16.72;82.80;94438.53;5093116;28;20448;-80
2022/06/08 03:03:33;;;;;;;6.30;5.37;;;;;;;16.79;82.98;94443.16;5093062;28;20444;-80
2022/06/08 03:06:05;;;;;;;5.60;5.10;;;;;;;16.83;82.54;94455.03;5093152;28;20464;-80
2022/06/08 03:08:36;;;;;;;5.20;4.70;;;;;;;16.87;83.12;94454.50;5092981;28;20440;-80
2022/06/08 03:11:07;;;;;;;5.60;5.10;;;;;;;16.94;83.21;94466.03;5040500;28;20430;-80
2022/06/08 03:13:41;;;;;;;12.80;5.10;;;;;;;16.98;82.59;94466.50;5093015;28;20452;-80
2022/06/08 03:16:10;;;;;;;6.23;5.57;;;;;;;17.04;82.83;94457.81;5092617;28;20446;-80
2022/06/08 03:18:37;;;;;;;5.13;4.70;;;;;;;17.05;83.56;94459.47;5092614;28;20857;-80
2022/06/08 03:21:04;;;;;;;6.40;5.43;;;;;;;17.12;82.75;94465.72;5092725;28;20447;-80
2022/06/08 03:23:33;;;;;;;6.00;5.50;;;;;;;17.19;82.96;94463.97;5092963;28;20444;-80
2022/06/08 03:25:59;;;;;;;5.70;5.17;;;;;;;17.40;83.02;94471.22;5092777;28;20471;-80
2022/06/08 03:28:28;;;;;;;6.93;4.90;;;;;;;17.70;81.98;94476.56;5093234;28;20444;-79
2022/06/08 03:30:54;;;;;;;8.47;5.40;;;;;;;18.05;80.86;94483.78;5093644;28;20902;-80
2022/06/08 03:33:21;;;;;;;4.97;4.67;;;;;;;18.37;79.50;94479.03;5093533;28;20448;-81
2022/06/08 03:35:48;;;;;;;6.57;5.17;;;;;;;18.80;77.31;94486.06;5093405;28;20490;-81
2022/06/08 03:38:15;;;;;;;16.83;6.37;;;;;;;19.28;75.08;94482.75;5093848;28;20576;-82
2022/06/08 03:40:42;;;;;;;6.43;4.97;;;;;;;19.65;72.00;94493.09;5094003;28;20421;-80
2022/06/08 03:43:10;;;;;;;6.80;4.83;;;;;;;20.01;69.51;94500.06;5093373;28;20428;-81
2022/06/08 03:45:44;;;;;;;6.77;4.63;;;;;;;20.32;70.17;94489.75;5093759;28;20798;-80
2022/06/08 03:48:12;;;;;;;5.30;4.03;;;;;;;20.50;66.26;94496.38;5093675;28;21075;-81
2022/06/08 03:50:41;;;;;;;4.57;4.17;;;;;;;20.50;66.13;94485.72;5093583;28;20428;-79
2022/06/08 03:53:13;;;;;;;4.60;4.13;;;;;;;20.52;65.63;94489.00;5093506;28;20506;-80
2022/06/08 03:55:40;;;;;;;4.53;3.67;;;;;;;20.73;66.03;94486.19;5093633;28;20647;-80
2022/06/08 03:58:08;;;;;;;4.57;4.17;;;;;;;20.84;64.83;94490.13;5093212;28;20468;-80
2022/06/08 04:00:36;;;;;;;4.27;3.97;;;;;;;21.02;63.97;94485.81;5093345;28;20432;-82
2022/06/08 04:03:05;;;;;;;4.37;3.97;;;;;;;21.08;64.01;94488.69;5093641;28;20451;-80
2022/06/08 04:05:32;;;;;;;5.63;4.30;;;;;;;21.12;63.70;94482.78;5093398;28;20428;-79
2022/06/08 04:07:59;;;;;;;5.83;4.23;;;;;;;21.19;63.61;94485.44;5093555;28;20454;-83
2022/06/08 04:10:27;;;;;;;6.07;4.40;;;;;;;21.43;69.85;94479.50;5041745;28;20439;-84
2022/06/08 04:12:55;;;;;;;4.07;3.77;;;;;;;22.30;67.60;94480.97;5094154;28;20444;-85
2022/06/08 04:18:08;;;;;;;4.23;3.93;;;;;;;23.37;59.94;94474.75;5093569;28;21012;-86
2022/06/08 04:20:36;;;;;;;5.00;4.60;;;;;;;23.78;61.08;94476.09;5093807;28;20447;-84
2022/06/08 04:23:04;;;;;;;6.00;5.50;;;;;;;23.78;56.81;94471.53;5093908;28;20460;-80
2022/06/08 04:25:31;;;;;;;8.03;6.07;;;;;;;23.54;57.91;94464.31;5092984;28;20444;-80
2022/06/08 04:27:59;;;;;;;6.33;5.80;;;;;;;23.51;58.64;94475.47;5093011;28;20428;-81
2022/06/08 04:30:26;;;;;;;6.23;5.40;;;;;;;23.08;59.54;94462.03;5095871;28;20440;-80
2022/06/08 04:32:53;;;;;;;9.47;6.43;;;;;;;22.77;60.57;94449.44;5096182;28;20434;-80
2022/06/08 04:35:21;;;;;;;12.10;6.23;;;;;;;22.94;59.90;94458.63;5096095;28;20443;-80
2022/06/08 04:37:48;;;;;;;9.73;6.07;;;;;;;22.90;59.98;94462.78;5096679;28;20490;-80
2022/06/08 04:40:16;;;;;;;7.57;6.60;;;;;;;22.75;60.56;94459.53;5060265;28;20472;-80
2022/06/08 04:42:43;;;;;;;11.03;5.93;;;;;;;22.64;60.95;94461.06;5095966;28;20443;-80
2022/06/08 04:45:11;;;;;;;6.80;5.40;;;;;;;22.73;60.68;94457.09;5096043;28;20440;-80
2022/06/08 04:47:38;;;;;;;8.50;5.37;;;;;;;22.66;60.27;94456.31;5095732;28;20865;-80
2022/06/08 04:50:07;;;;;;;4.97;4.47;;;;;;;22.13;61.78;94453.06;5096539;28;20804;-80
2022/06/08 04:52:36;;;;;;;5.47;4.97;;;;;;;22.23;61.88;94456.09;5077430;28;20930;-80
2022/06/08 04:55:05;;;;;;;9.03;5.33;;;;;;;22.27;62.74;94460.03;5095599;28;20440;-80
2022/06/08 04:57:34;;;;;;;5.47;4.87;;;;;;;22.11;61.66;94455.97;5042227;28;20467;-80
2022/06/08 05:00:01;;;;;;;4.90;4.50;;;;;;;22.10;62.66;94464.19;5095556;28;20476;-80
2022/06/08 05:02:47;;;;;;;6.20;5.43;;;;;;;21.88;63.28;94464.41;5095511;28;20926;-81
2022/06/08 05:05:19;;;;;;;7.30;6.43;;;;;;;22.05;64.01;94458.66;5095895;28;20436;-80
2022/06/08 05:07:47;;;;;;;5.30;4.90;;;;;;;22.46;62.91;94467.09;5095981;28;20524;-80
2022/06/08 05:10:14;;;;;;;5.23;4.60;;;;;;;22.80;59.74;94465.88;5095326;28;20448;-81
2022/06/08 05:12:42;;;;;;;6.40;5.50;;;;;;;22.82;61.38;94469.19;5095561;28;20858;-81
2022/06/08 05:15:12;;;;;;;5.93;5.40;;;;;;;23.07;60.82;94465.75;5042813;28;20440;-81
2022/06/08 05:17:39;;;;;;;5.70;5.23;;;;;;;23.24;61.12;94463.34;5095328;28;20436;-81
2022/06/08 05:20:08;;;;;;;4.93;4.43;;;;;;;23.63;60.83;94472.91;5095009;28;21028;-81
2022/06/08 05:22:37;;;;;;;6.77;5.60;;;;;;;23.76;59.63;94473.63;5095244;28;20478;-81
2022/06/08 05:25:07;;;;;;;5.53;5.07;;;;;;;23.97;60.13;94475.03;5095014;28;20490;-82
2022/06/08 05:27:34;;;;;;;6.30;5.70;;;;;;;24.24;57.69;94466.69;5059862;28;20462;-83
2022/06/08 05:30:01;;;;;;;5.20;4.73;;;;;;;24.37;56.43;94478.13;5095271;28;20444;-81
2022/06/08 05:32:28;;;;;;;4.80;4.37;;;;;;;24.56;57.12;94480.78;5094901;28;20934;-82
2022/06/08 05:34:55;;;;;;;6.93;4.53;;;;;;;24.43;56.26;94473.72;5096249;28;20444;-85
2022/06/08 05:37:22;;;;;;;5.10;4.50;;;;;;;24.66;56.45;94478.41;5044316;28;20441;-83
2022/06/08 05:39:49;;;;;;;4.67;4.30;;;;;;;25.01;55.41;94470.50;5094622;28;20546;-86
2022/06/08 05:42:17;;;;;;;4.60;4.30;;;;;;;25.40;53.86;94468.22;5094998;28;20464;-83
2022/06/08 05:44:44;;;;;;;4.33;4.03;;;;;;;25.60;53.11;94474.09;5042409;28;20448;-80
2022/06/08 05:47:12;;;;;;;9.60;4.90;;;;;;;25.84;51.76;94470.41;5095423;28;20847;-80
2022/06/08 05:49:40;;;;;;;4.83;4.50;;;;;;;25.84;51.98;94470.41;5095477;28;20452;-80
2022/06/08 05:52:07;;;;;;;5.60;4.30;;;;;;;26.05;50.71;94471.66;5095379;28;20440;-80
2022/06/08 05:54:34;;;;;;;4.20;3.80;;;;;;;26.20;50.10;94463.91;5059960;28;20436;-80
2022/06/08 05:57:02;;;;;;;4.17;3.80;;;;;;;26.35;49.07;94458.09;5095552;28;20801;-80
2022/06/08 05:59:30;;;;;;;9.40;4.67;;;;;;;26.54;49.51;94464.91;5059851;28;20491;-80
2022/06/08 06:01:57;;;;;;;10.87;4.33;;;;;;;26.59;48.75;94466.06;5043610;28;20449;-80
2022/06/08 06:04:24;;;;;;;6.03;4.60;;;;;;;26.66;47.86;94464.06;5095412;28;20443;-80
2022/06/08 06:06:51;;;;;;;4.53;4.23;;;;;;;26.66;47.88;94461.38;5095197;28;20524;-80
2022/06/08 06:09:20;;;;;;;6.90;4.47;;;;;;;26.52;46.93;94469.72;5094473;28;20442;-80
2022/06/08 06:11:49;;;;;;;5.47;5.03;;;;;;;26.40;48.15;94452.78;5094451;28;20535;-80
2022/06/08 06:14:16;;;;;;;4.40;4.10;;;;;;;26.39;46.95;94459.22;5041690;28;20428;-80
2022/06/08 06:16:45;;;;;;;4.73;4.13;;;;;;;26.53;49.21;94465.16;5094165;28;20444;-80
2022/06/08 06:19:12;;;;;;;5.77;4.90;;;;;;;26.76;47.90;94461.56;5094132;28;20510;-80
2022/06/08 06:21:39;;;;;;;6.67;4.13;;;;;;;26.90;48.22;94452.16;5094038;28;20472;-79
2022/06/08 06:24:06;;;;;;;5.80;4.70;;;;;;;26.98;47.38;94451.75;5058243;28;20425;-81
2022/06/08 06:26:33;;;;;;;5.23;4.37;;;;;;;26.99;46.36;94453.41;5094293;28;20440;-80
2022/06/08 06:29:00;;;;;;;6.97;4.40;;;;;;;27.04;47.34;94444.59;5093985;28;20444;-80
2022/06/08 06:31:34;;;;;;;5.17;3.47;;;;;;;27.14;46.97;94442.06;5094318;28;20436;-80
2022/06/08 06:34:02;;;;;;;5.33;4.83;;;;;;;27.31;47.09;94437.53;5093973;28;20432;-80
2022/06/08 06:36:29;;;;;;;5.43;4.47;;;;;;;27.26;47.52;94440.13;5093892;28;20959;-80
2022/06/08 06:38:56;;;;;;;5.93;4.27;;;;;;;27.40;49.47;94441.44;5093737;28;20484;-80
2022/06/08 06:41:23;;;;;;;5.40;5.00;;;;;;;27.49;48.92;94427.56;5094020;28;20487;-80
2022/06/08 06:43:50;;;;;;;7.23;4.60;;;;;;;27.57;46.83;94438.75;5093583;28;20499;-80
2022/06/08 06:46:17;;;;;;;4.77;4.37;;;;;;;27.57;45.98;94436.03;5093650;28;20441;-80
2022/06/08 06:48:44;;;;;;;4.17;3.80;;;;;;;27.42;45.46;94433.91;5093616;28;20463;-80
2022/06/08 06:51:12;;;;;;;6.33;4.73;;;;;;;27.30;47.25;94432.38;5093275;28;20436;-80
2022/06/08 06:53:39;;;;;;;4.93;3.50;;;;;;;27.37;46.94;94425.75;5093479;28;20464;-79
2022/06/08 06:56:08;;;;;;;6.20;4.17;;;;;;;27.18;47.53;94421.69;5093511;28;20438;-80
2022/06/08 06:58:35;;;;;;;5.60;4.47;;;;;;;27.22;48.87;94422.00;5042003;28;20524;-80
2022/06/08 07:01:02;;;;;;;5.73;5.23;;;;;;;27.19;48.61;94417.94;5093304;28;20448;-80
2022/06/08 07:03:29;;;;;;;5.30;4.47;;;;;;;27.19;49.71;94417.13;5093770;28;20532;-80
2022/06/08 07:05:57;;;;;;;5.53;5.00;;;;;;;27.33;49.33;94413.84;5093556;28;20452;-80
2022/06/08 07:08:26;;;;;;;5.17;4.73;;;;;;;27.28;49.40;94410.25;5093028;28;20465;-80
2022/06/08 07:13:33;;;;;;;8.70;5.50;;;;;;;27.67;49.16;94417.34;5091975;28;20533;-80
2022/06/08 07:16:01;;;;;;;4.53;4.13;;;;;;;27.72;46.25;94411.22;5093197;28;20441;-80
2022/06/08 07:18:31;;;;;;;5.87;4.70;;;;;;;27.70;47.58;94418.72;5093081;28;20443;-80
2022/06/08 07:20:57;;;;;;;5.20;4.70;;;;;;;27.56;47.65;94420.13;5092957;28;20982;-81
2022/06/08 07:23:26;;;;;;;5.43;5.03;;;;;;;27.47;47.32;94422.44;5092961;28;20456;-80
2022/06/08 07:25:53;;;;;;;17.43;5.07;;;;;;;27.52;48.20;94427.88;5092798;28;20464;-80
2022/06/08 07:28:20;;;;;;;6.53;3.53;;;;;;;27.57;46.73;94419.88;5092973;28;20444;-80
2022/06/08 07:30:47;;;;;;;4.60;3.97;;;;;;;27.49;45.22;94422.19;5093106;28;20527;-80
2022/06/08 07:33:14;;;;;;;3.90;3.50;;;;;;;27.57;45.72;94422.56;5093018;28;20451;-80
2022/06/08 07:35:41;;;;;;;5.33;4.73;;;;;;;27.57;46.61;94427.97;5040657;28;20902;-80
2022/06/08 07:38:08;;;;;;;3.80;3.50;;;;;;;27.57;46.58;94427.97;5092541;28;20462;-80
2022/06/08 07:40:37;;;;;;;3.57;3.27;;;;;;;27.62;44.70;94428.06;5092508;28;20590;-80
2022/06/08 07:43:04;;;;;;;3.57;3.27;;;;;;;27.62;45.67;94438.84;5092557;28;20449;-80
2022/06/08 07:45:31;;;;;;;5.63;3.17;;;;;;;27.47;43.43;94425.13;5057508;28;20455;-80
2022/06/08 07:50:43;;;;;;;4.03;3.53;;;;;;;27.15;44.17;94425.66;5092744;28;20435;-80
2022/06/08 07:53:10;;;;;;;3.10;2.90;;;;;;;27.24;43.85;94425.28;5056655;28;20528;-80
2022/06/08 07:55:38;;;;;;;4.57;3.30;;;;;;;27.67;45.44;94425.44;5092330;28;20935;-80
2022/06/08 07:58:05;;;;;;;3.10;2.90;;;;;;;27.84;42.58;94430.00;5092906;28;20526;-80
2022/06/08 08:00:32;;;;;;;3.40;3.20;;;;;;;27.98;42.76;94437.47;5092415;28;20483;-80
2022/06/08 08:02:59;;;;;;;3.13;2.93;;;;;;;28.14;43.21;94433.13;5094173;28;20459;-80
2022/06/08 08:05:26;;;;;;;3.40;3.10;;;;;;;28.31;41.37;94419.56;5098951;28;20440;-80
2022/06/08 08:07:55;;;;;;;6.10;3.33;;;;;;;28.38;40.87;94423.75;5046805;28;20916;-81
2022/06/08 08:10:25;;;;;;;5.37;3.30;;;;;;;28.55;41.00;94422.84;5099053;28;20945;-80
2022/06/08 08:12:55;;;;;;;3.07;2.87;;;;;;;28.66;40.77;94416.50;5098932;28;20447;-81
2022/06/08 08:15:23;;;;;;;3.70;3.20;;;;;;;28.59;40.29;94424.78;5046904;28;20436;-81
2022/06/08 08:17:50;;;;;;;3.90;3.60;;;;;;;28.71;39.00;94423.84;5098997;28;20448;-80
2022/06/08 08:20:18;;;;;;;3.53;3.17;;;;;;;28.66;39.48;94416.50;5098792;28;20488;-81
2022/06/08 08:22:46;;;;;;;4.37;3.17;;;;;;;28.18;39.95;94409.97;5099349;28;20992;-80
2022/06/08 08:25:15;;;;;;;3.37;3.07;;;;;;;28.11;41.51;94401.25;5099346;28;20456;-79
2022/06/08 08:27:42;;;;;;;3.47;3.27;;;;;;;28.05;40.09;94410.34;5047446;28;20943;-80
2022/06/08 08:30:13;;;;;;;8.33;3.30;;;;;;;28.15;39.78;94402.38;5099409;28;20448;-80
2022/06/08 08:32:41;;;;;;;7.93;2.93;;;;;;;28.17;39.45;94396.72;5063625;28;20455;-80
2022/06/08 08:35:09;;;;;;;3.30;2.93;;;;;;;28.14;38.99;94398.03;5099066;28;20843;-81
2022/06/08 08:37:36;;;;;;;3.23;3.03;;;;;;;28.05;39.53;94391.47;5099059;28;20456;-80
2022/06/08 08:40:04;;;;;;;3.50;2.90;;;;;;;28.10;40.88;94388.81;5098682;28;20484;-80
2022/06/08 08:42:31;;;;;;;2.93;2.73;;;;;;;28.16;39.65;94387.81;5098525;28;20475;-81
2022/06/08 08:45:02;;;;;;;3.27;2.87;;;;;;;28.07;40.65;94386.63;5098757;28;20448;-81
2022/06/08 08:47:39;;;;;;;2.90;2.53;;;;;;;28.02;39.43;94383.84;5098669;28;20441;-80
2022/06/08 08:50:16;;;;;;;4.43;4.13;;;;;;;27.43;42.04;94380.81;5098727;28;20845;-80
2022/06/08 08:52:50;;;;;;;3.07;2.87;;;;;;;26.83;41.22;94379.56;5098776;28;21015;-80
2022/06/08 08:55:25;;;;;;;3.23;2.90;;;;;;;26.84;40.66;94377.69;5098896;28;20468;-80
2022/06/08 08:58:00;;;;;;;4.20;3.07;;;;;;;27.15;42.95;94374.47;5098861;28;20443;-80
2022/06/08 09:00:36;;;;;;;3.60;2.70;;;;;;;26.89;40.99;94369.72;5098790;28;20515;-80
2022/06/08 09:03:25;;;;;;;3.40;2.20;;;;;;;26.80;41.88;94374.66;5099031;28;20490;-80
2022/06/08 09:05:55;;;;;;;3.00;2.50;;;;;;;27.23;42.92;94372.44;5082756;28;20961;-80
2022/06/08 09:08:24;;;;;;;2.80;2.50;;;;;;;27.31;39.37;94369.34;5098649;28;20467;-80
2022/06/08 09:10:52;;;;;;;7.53;2.63;;;;;;;27.27;39.13;94373.59;5099012;28;20456;-80
2022/06/08 09:13:24;;;;;;;3.57;2.90;;;;;;;27.57;38.83;94374.03;5098825;28;20440;-80
2022/06/08 09:15:52;;;;;;;2.90;2.50;;;;;;;27.77;39.05;94370.84;5095332;28;20450;-81
2022/06/08 09:18:31;;;;;;;3.00;2.80;;;;;;;27.72;41.21;94368.88;5095515;28;20540;-81
2022/06/08 09:20:58;;;;;;;3.43;2.50;;;;;;;27.75;40.37;94363.00;5095640;28;20567;-80
2022/06/08 09:23:37;;;;;;;3.60;2.60;;;;;;;27.79;40.81;94360.63;5095600;28;20443;-80
2022/06/08 09:26:07;;;;;;;2.13;2.03;;;;;;;27.52;39.61;94357.81;5095097;28;20787;-81
2022/06/08 09:28:35;;;;;;;2.67;2.47;;;;;;;27.47;40.17;94360.44;5095714;28;20448;-80
2022/06/08 09:31:02;;;;;;;3.07;2.87;;;;;;;27.54;40.79;94352.97;5095032;28;20448;-80
2022/06/08 09:33:36;;;;;;;3.17;2.87;;;;;;;27.59;41.83;94352.22;5095308;28;20932;-80
2022/06/08 09:36:06;;;;;;;2.80;2.60;;;;;;;27.71;42.71;94350.25;5094973;28;20452;-80
2022/06/08 09:38:37;;;;;;;2.83;2.63;;;;;;;27.60;41.75;94354.69;5095134;28;20924;-80
2022/06/08 09:41:14;;;;;;;2.50;2.30;;;;;;;27.16;41.85;94343.78;5042736;28;20484;-81
2022/06/08 09:43:57;;;;;;;2.53;2.33;;;;;;;27.12;40.96;94342.66;5095076;28;20447;-80
2022/06/08 09:52:20;;;;;;;2.73;2.53;;;;;;;26.36;42.02;94335.13;5094806;28;20512;-81
2022/06/08 09:55:02;;;;;;;2.63;2.40;;;;;;;25.62;44.86;94343.81;5094797;28;20524;-80
2022/06/08 09:57:41;;;;;;;4.90;2.70;;;;;;;26.03;43.72;94346.56;5094810;28;20444;-80
2022/06/08 10:00:18;;;;;;;2.80;2.60;;;;;;;25.58;41.94;94339.16;5094407;28;20992;-80
2022/06/08 10:02:58;;;;;;;9.43;2.83;;;;;;;25.91;42.88;94333.16;5094789;28;20447;-80
2022/06/08 10:05:41;;;;;;;3.10;2.43;;;;;;;26.19;43.69;94319.72;5094686;28;20436;-80
2022/06/08 10:08:21;;;;;;;2.40;2.20;;;;;;;26.48;45.18;94320.56;5094401;28;20448;-80
2022/06/08 10:10:55;;;;;;;5.20;2.83;;;;;;;26.69;43.73;94323.59;5094337;28;20958;-80
2022/06/08 10:13:31;;;;;;;2.43;2.23;;;;;;;26.67;42.23;94317.66;5094331;28;20448;-80
2022/06/08 10:16:02;;;;;;;2.70;2.50;;;;;;;26.51;42.84;94317.38;5094539;28;20448;-80
2022/06/08 10:18:35;;;;;;;2.87;2.50;;;;;;;26.71;42.59;94314.22;5094428;28;20930;-80
2022/06/08 10:21:11;;;;;;;3.00;2.80;;;;;;;26.76;40.99;94308.09;5041484;28;20480;-80
2022/06/08 10:23:44;;;;;;;3.00;2.67;;;;;;;26.94;42.16;94310.56;5093912;28;20518;-80
2022/06/08 10:26:19;;;;;;;4.90;2.77;;;;;;;27.11;44.15;94307.88;5093523;28;20445;-80
2022/06/08 10:28:49;;;;;;;2.83;2.63;;;;;;;27.13;42.87;94311.94;5093963;28;20946;-81
2022/06/08 10:31:22;;;;;;;2.80;2.60;;;;;;;27.17;41.61;94286.16;5094421;28;20437;-81
2022/06/08 10:33:56;;;;;;;2.97;2.73;;;;;;;27.32;43.83;94303.59;5093973;28;20495;-81
2022/06/08 10:36:26;;;;;;;2.73;2.53;;;;;;;27.27;45.08;94295.47;5093969;28;20471;-80
2022/06/08 10:38:53;;;;;;;2.73;2.53;;;;;;;27.27;42.99;94285.50;5094258;28;20448;-80
2022/06/08 10:44:28;;;;;;;3.63;2.33;;;;;;;26.94;42.64;94289.03;5094016;28;20435;-80
2022/06/08 10:46:56;;;;;;;2.77;2.57;;;;;;;27.07;42.69;94291.41;5093952;28;20456;-80
2022/06/08 10:49:50;;;;;;;6.80;2.63;;;;;;;27.15;43.49;94282.88;5093695;28;20457;-80
2022/06/08 10:52:28;;;;;;;3.13;2.83;;;;;;;27.26;43.83;94289.25;5093345;28;20453;-81
2022/06/08 10:55:16;;;;;;;2.43;2.23;;;;;;;27.35;43.28;94284.25;5093091;28;20464;-80
2022/06/08 10:58:03;;;;;;;3.17;2.90;;;;;;;27.45;41.02;94281.69;5093460;28;20451;-80
2022/06/08 11:01:00;;;;;;;3.10;2.73;;;;;;;27.62;43.82;94282.50;5093693;28;20506;-80
2022/06/08 11:03:58;;;;;;;4.30;2.80;;;;;;;27.64;43.67;94283.06;5093247;28;20828;-80
2022/06/08 11:07:04;;;;;;;3.30;3.10;;;;;;;27.62;41.58;94282.50;4992038;28;20586;-80
2022/06/08 11:10:01;;;;;;;3.00;2.80;;;;;;;27.62;42.10;94277.09;4991891;28;20541;-80
2022/06/08 11:12:46;;;;;;;3.93;2.77;;;;;;;27.77;44.03;94274.59;4991517;28;20441;-80
2022/06/08 11:15:35;;;;;;;3.40;3.10;;;;;;;27.78;41.40;94264.63;4991614;28;20446;-81
2022/06/08 11:18:18;;;;;;;3.00;2.80;;;;;;;27.61;42.19;94261.97;4933522;29;20454;-80
2022/06/08 11:20:53;;;;;;;3.50;3.03;;;;;;;27.55;41.99;94264.84;4933682;29;20496;-81
2022/06/08 11:23:30;;;;;;;3.47;2.50;;;;;;;27.42;41.28;94264.13;4933091;29;20471;-81
2022/06/08 11:26:25;;;;;;;5.30;2.67;;;;;;;27.46;42.75;94256.34;4917165;29;20525;-81
2022/06/08 11:28:57;;;;;;;4.20;3.10;;;;;;;27.54;41.38;94253.25;4933744;29;20462;-80
2022/06/08 11:31:50;;;;;;;3.20;2.90;;;;;;;27.61;40.68;94251.16;4933315;29;20449;-81
2022/06/08 11:34:34;;;;;;;3.47;3.27;;;;;;;27.59;40.94;94253.31;4917285;29;20436;-81
2022/06/08 11:37:13;;;;;;;3.20;2.90;;;;;;;27.65;40.74;94244.25;4933122;29;20464;-80
2022/06/08 11:39:48;;;;;;;2.80;2.60;;;;;;;27.76;42.33;94237.91;4942581;28;20455;-80
2022/06/08 11:42:25;;;;;;;3.30;2.73;;;;;;;27.36;42.78;94227.41;5010572;28;20558;-81
2022/06/08 11:44:55;;;;;;;2.80;2.60;;;;;;;27.39;42.97;94228.78;5010531;28;20531;-81
2022/06/08 11:47:28;;;;;;;5.80;3.07;;;;;;;27.52;42.47;94223.03;5010569;28;20449;-81
2022/06/08 11:49:57;;;;;;;8.70;2.80;;;;;;;27.57;43.22;94220.41;5010426;28;20524;-80
2022/06/08 11:52:31;;;;;;;3.00;2.80;;;;;;;27.56;42.47;94215.25;5010699;28;20458;-81
2022/06/08 11:55:12;;;;;;;3.00;2.80;;;;;;;27.60;42.81;94217.19;5041957;28;20475;-80
2022/06/08 11:57:43;;;;;;;4.50;2.87;;;;;;;27.73;41.97;94206.03;5092624;28;20491;-80
2022/06/08 12:00:22;;;;;;;4.80;2.80;;;;;;;27.71;41.01;94213.56;5092912;28;20472;-80
2022/06/08 12:02:53;;;;;;;6.80;2.97;;;;;;;27.67;41.01;94228.63;5092535;28;20440;-80
2022/06/08 12:05:26;;;;;;;2.87;2.60;;;;;;;27.57;40.42;94231.19;5092486;28;20441;-80
2022/06/08 12:08:01;;;;;;;3.70;2.97;;;;;;;27.27;42.18;94230.78;5092476;28;20437;-80
2022/06/08 12:10:32;;;;;;;3.80;3.40;;;;;;;27.50;40.96;94230.56;5093083;28;20439;-83
2022/06/08 12:13:01;;;;;;;4.03;3.30;;;;;;;27.51;40.97;94231.38;5092621;28;20444;-81
2022/06/08 12:15:35;;;;;;;3.60;2.70;;;;;;;27.69;41.31;94231.06;5093394;28;20439;-80